Time,TemperatureF,DewpointF,PressureIn,WindDirection,WindDirectionDegrees,WindSpeedMPH,WindSpeedGustMPH,Humidity,HourlyPrecipIn,Conditions,Clouds,dailyrainin,SoftwareType,DateUTC
2013-02-23 00:01:00,44.1,42.8,30.04,South,187,0.0,4.0,95,0.00,RA,,0.00,WeatherDisplay:10.37,2013-02-23 05:01:00,
2013-02-23 00:10:00,44.1,42.8,30.04,South,187,1.0,3.0,95,0.00,OVC,,0.00,WeatherDisplay:10.37,2013-02-23 05:10:00,
2013-02-23 00:20:00,44.0,42.7,30.04,WSW,248,2.0,4.0,95,0.00,OVC,,0.00,WeatherDisplay:10.37,2013-02-23 05:20:00,
2013-02-23 00:31:00,44.1,42.8,30.05,WSW,242,3.0,7.0,95,0.00,OVC,,0.00,WeatherDisplay:10.37,2013-02-23 05:31:00,
2013-02-23 00:40:00,44.4,43.1,30.04,WSW,244,5.0,9.0,95,0.00,OVC,,0.00,WeatherDisplay:10.37,2013-02-23 05:40:00,
2013-02-23 00:50:00,44.5,43.2,30.03,SW,230,6.0,9.0,95,0.01,RA,,0.01,WeatherDisplay:10.37,2013-02-23 05:50:00,
2013-02-23 01:01:00,44.5,42.9,30.03,WSW,240,3.0,12.0,94,0.00,OVC,,0.01,WeatherDisplay:10.37,2013-02-23 06:01:00,
2013-02-23 01:10:00,44.3,42.7,30.02,WSW,250,7.0,12.0,94,0.00,-RA,,0.01,WeatherDisplay:10.37,2013-02-23 06:10:00,
2013-02-23 01:20:00,44.2,42.6,30.04,WSW,246,7.0,10.0,94,0.01,-RA,,0.02,WeatherDisplay:10.37,2013-02-23 06:20:00,
2013-02-23 01:31:00,44.0,42.4,30.02,SW,223,2.0,8.0,94,0.02,-RA,,0.04,WeatherDisplay:10.37,2013-02-23 06:31:00,
2013-02-23 01:40:00,44.0,42.7,30.03,WSW,255,0.0,6.0,95,0.02,RA,,0.06,WeatherDisplay:10.37,2013-02-23 06:40:00,
2013-02-23 01:50:00,44.0,42.7,30.02,WSW,257,0.0,1.0,95,0.00,-RA,,0.06,WeatherDisplay:10.37,2013-02-23 06:50:00,
2013-02-23 02:01:00,44.0,42.7,30.00,WSW,257,0.0,2.0,95,0.03,-RA,,0.09,WeatherDisplay:10.37,2013-02-23 07:01:00,
2013-02-23 02:10:00,44.1,43.1,30.05,West,266,0.0,5.0,96,0.00,-RA,,0.09,WeatherDisplay:10.37,2013-02-23 07:10:00,
2013-02-23 02:20:00,44.2,43.2,30.02,West,271,0.0,1.0,96,0.04,-RA,,0.13,WeatherDisplay:10.37,2013-02-23 07:20:00,
2013-02-23 02:31:00,44.2,43.1,30.01,West,271,0.0,1.0,96,0.01,-RA,,0.14,WeatherDisplay:10.37,2013-02-23 07:31:00,
2013-02-23 02:40:00,44.1,43.1,30.00,West,271,0.0,1.0,96,0.01,-RA,,0.15,WeatherDisplay:10.37,2013-02-23 07:40:00,
2013-02-23 02:50:00,44.1,43.0,30.00,West,271,0.0,0.0,96,0.01,-RA,,0.16,WeatherDisplay:10.37,2013-02-23 07:50:00,
2013-02-23 03:01:00,44.1,43.1,29.97,West,271,0.0,2.0,96,0.00,-RA,,0.16,WeatherDisplay:10.37,2013-02-23 08:01:00,
2013-02-23 03:10:00,44.2,43.1,29.97,West,281,1.0,2.0,96,0.00,-RA,,0.16,WeatherDisplay:10.37,2013-02-23 08:10:00,
2013-02-23 03:20:00,44.1,43.0,29.98,NE,36,0.0,2.0,96,0.00,-RA,,0.16,WeatherDisplay:10.37,2013-02-23 08:20:00,
2013-02-23 03:31:00,44.1,43.0,29.99,NE,36,0.0,1.0,96,0.00,-RA,,0.16,WeatherDisplay:10.37,2013-02-23 08:31:00,
2013-02-23 03:40:00,44.1,43.0,29.97,NE,36,0.0,1.0,96,0.00,-DZ,,0.16,WeatherDisplay:10.37,2013-02-23 08:40:00,
2013-02-23 03:50:00,44.1,43.0,29.98,NE,36,0.0,1.0,96,0.00,OVC,,0.16,WeatherDisplay:10.37,2013-02-23 08:50:00,
2013-02-23 04:01:00,44.1,43.0,29.97,NE,36,0.0,3.0,96,0.00,OVC,,0.16,WeatherDisplay:10.37,2013-02-23 09:01:00,
2013-02-23 04:10:00,44.1,43.0,29.97,NE,36,0.0,2.0,96,0.00,OVC,,0.16,WeatherDisplay:10.37,2013-02-23 09:10:00,
2013-02-23 04:20:00,44.2,43.1,29.97,NE,36,0.0,2.0,96,0.00,OVC,,0.16,WeatherDisplay:10.37,2013-02-23 09:20:00,
2013-02-23 04:31:00,44.2,43.1,29.97,NE,36,0.0,0.0,96,0.01,RA,,0.17,WeatherDisplay:10.37,2013-02-23 09:31:00,
2013-02-23 04:40:00,44.3,43.2,29.97,NE,36,0.0,1.0,96,0.04,RA,,0.21,WeatherDisplay:10.37,2013-02-23 09:40:00,
2013-02-23 04:50:00,44.3,43.2,29.97,NE,36,0.0,2.0,96,0.03,RA,,0.24,WeatherDisplay:10.37,2013-02-23 09:50:00,
2013-02-23 05:01:00,44.3,43.3,29.97,NE,36,0.0,0.0,96,0.03,RA,,0.27,WeatherDisplay:10.37,2013-02-23 10:01:00,
2013-02-23 05:10:00,44.4,43.3,29.98,NE,36,0.0,2.0,96,0.02,-RA,,0.29,WeatherDisplay:10.37,2013-02-23 10:10:00,
2013-02-23 05:20:00,44.4,43.6,29.97,NE,36,0.0,0.0,97,0.02,-RA,,0.31,WeatherDisplay:10.37,2013-02-23 10:20:00,
2013-02-23 05:31:00,44.4,43.6,29.95,NE,36,0.0,0.0,97,0.02,-RA,,0.33,WeatherDisplay:10.37,2013-02-23 10:31:00,
2013-02-23 05:40:00,44.4,43.6,29.95,NE,36,0.0,0.0,97,0.01,RA,,0.34,WeatherDisplay:10.37,2013-02-23 10:40:00,
2013-02-23 05:50:00,44.4,43.6,29.95,NE,36,0.0,1.0,97,0.00,-RA,,0.34,WeatherDisplay:10.37,2013-02-23 10:50:00,
2013-02-23 06:01:00,44.4,43.6,29.96,NE,36,0.0,1.0,97,0.01,-RA,,0.35,WeatherDisplay:10.37,2013-02-23 11:01:00,
2013-02-23 06:10:00,44.5,43.7,29.96,NE,42,0.0,3.0,97,0.01,RA,,0.36,WeatherDisplay:10.37,2013-02-23 11:10:00,
2013-02-23 06:20:00,44.6,43.8,29.96,NE,46,0.0,2.0,97,0.01,RA,,0.37,WeatherDisplay:10.37,2013-02-23 11:20:00,
2013-02-23 06:31:00,44.6,43.8,29.95,NE,46,0.0,0.0,97,0.01,RA,,0.38,WeatherDisplay:10.37,2013-02-23 11:31:00,
2013-02-23 06:40:00,44.7,43.9,29.95,NE,46,0.0,1.0,97,0.00, +RA,,0.38,WeatherDisplay:10.37,2013-02-23 11:40:00,
2013-02-23 06:50:00,44.7,43.9,29.95,NE,46,1.0,2.0,97,0.01,-RA,,0.39,WeatherDisplay:10.37,2013-02-23 11:50:00,
2013-02-23 07:01:00,44.7,43.9,29.96,NE,46,0.0,2.0,97,0.01,-RA,,0.40,WeatherDisplay:10.37,2013-02-23 12:01:00,
2013-02-23 07:10:00,44.7,43.9,29.96,NE,46,0.0,1.0,97,0.00,-RA,,0.40,WeatherDisplay:10.37,2013-02-23 12:10:00,
2013-02-23 07:20:00,44.8,44.0,29.96,NE,46,0.0,3.0,97,0.01,-RA,,0.41,WeatherDisplay:10.37,2013-02-23 12:20:00,
2013-02-23 07:31:00,44.9,44.1,29.97,NE,46,0.0,1.0,97,0.01,-RA,,0.42,WeatherDisplay:10.37,2013-02-23 12:31:00,
2013-02-23 07:40:00,44.9,44.1,29.96,NE,46,0.0,0.0,97,0.00,-RA,,0.42,WeatherDisplay:10.37,2013-02-23 12:40:00,
2013-02-23 07:50:00,44.9,44.1,29.97,NE,46,0.0,1.0,97,0.00,OVC,,0.42,WeatherDisplay:10.37,2013-02-23 12:50:00,
2013-02-23 08:01:00,45.1,44.3,29.97,NE,46,0.0,1.0,97,0.00,OVC,,0.42,WeatherDisplay:10.37,2013-02-23 13:01:00,
2013-02-23 08:10:00,45.2,44.4,29.97,NE,46,0.0,1.0,97,0.00,OVC,,0.42,WeatherDisplay:10.37,2013-02-23 13:10:00,
2013-02-23 08:20:00,45.4,44.6,29.98,NE,46,0.0,0.0,97,0.00,OVC,,0.42,WeatherDisplay:10.37,2013-02-23 13:20:00,
2013-02-23 08:31:00,45.5,44.7,29.97,ENE,72,0.0,1.0,97,0.00,OVC,,0.42,WeatherDisplay:10.37,2013-02-23 13:31:00,
2013-02-23 08:40:00,45.7,44.9,29.97,ESE,116,0.0,0.0,97,0.00,OVC,,0.42,WeatherDisplay:10.37,2013-02-23 13:40:00,
2013-02-23 08:50:00,45.8,45.0,29.97,ESE,116,0.0,1.0,97,0.00,-DZ,,0.42,WeatherDisplay:10.37,2013-02-23 13:50:00,
2013-02-23 09:01:00,45.9,45.1,29.98,ESE,116,0.0,2.0,97,0.00,-DZ,,0.42,WeatherDisplay:10.37,2013-02-23 14:01:00,
2013-02-23 09:10:00,46.0,45.2,29.97,ENE,57,0.0,2.0,97,0.00,OVC,,0.42,WeatherDisplay:10.37,2013-02-23 14:10:00,
2013-02-23 09:20:00,46.2,45.4,29.97,ENE,57,0.0,1.0,97,0.00,OVC,,0.42,WeatherDisplay:10.37,2013-02-23 14:20:00,
2013-02-23 09:31:00,46.5,45.7,29.97,ENE,57,0.0,2.0,97,0.00,OVC,,0.42,WeatherDisplay:10.37,2013-02-23 14:31:00,
2013-02-23 09:40:00,46.8,46.0,29.96,ENE,57,2.0,3.0,97,0.00,OVC,,0.42,WeatherDisplay:10.37,2013-02-23 14:40:00,
2013-02-23 09:50:00,47.0,46.2,29.96,ENE,57,1.0,3.0,97,0.00,OVC,,0.42,WeatherDisplay:10.37,2013-02-23 14:50:00,
2013-02-23 10:01:00,47.6,46.8,29.95,NE,48,3.0,4.0,97,0.00,OVC,,0.42,WeatherDisplay:10.37,2013-02-23 15:01:00,
2013-02-23 10:10:00,47.9,46.8,29.95,NE,45,2.0,5.0,96,0.00,OVC,,0.42,WeatherDisplay:10.37,2013-02-23 15:10:00,
2013-02-23 10:20:00,48.3,47.2,29.96,NE,45,3.0,6.0,96,0.00,OVC,,0.42,WeatherDisplay:10.37,2013-02-23 15:20:00,
2013-02-23 10:31:00,48.5,46.9,29.96,NE,38,2.0,6.0,94,0.00,OVC,,0.42,WeatherDisplay:10.37,2013-02-23 15:31:00,
2013-02-23 10:40:00,48.8,47.1,29.96,NE,48,1.0,5.0,94,0.00,OVC,,0.42,WeatherDisplay:10.37,2013-02-23 15:40:00,
2013-02-23 10:50:00,49.2,47.3,29.96,NE,53,2.0,4.0,93,0.00,OVC,,0.42,WeatherDisplay:10.37,2013-02-23 15:50:00,
2013-02-23 11:01:00,49.6,47.4,29.96,NE,51,5.0,7.0,92,0.00,OVC,,0.42,WeatherDisplay:10.37,2013-02-23 16:01:00,
2013-02-23 11:10:00,49.6,47.4,29.96,NE,43,2.0,6.0,92,0.00,OVC,,0.42,WeatherDisplay:10.37,2013-02-23 16:10:00,
2013-02-23 11:20:00,49.8,47.6,29.96,NE,49,1.0,5.0,92,0.00,OVC,,0.42,WeatherDisplay:10.37,2013-02-23 16:20:00,
2013-02-23 11:31:00,49.9,47.1,29.96,NE,49,0.0,6.0,90,0.00,OVC,,0.42,WeatherDisplay:10.37,2013-02-23 16:31:00,
2013-02-23 11:40:00,50.5,47.6,29.96,NE,49,2.0,4.0,90,0.00,OVC,,0.42,WeatherDisplay:10.37,2013-02-23 16:40:00,
2013-02-23 11:50:00,50.8,48.0,29.96,NE,44,0.0,6.0,90,0.00,OVC,,0.42,WeatherDisplay:10.37,2013-02-23 16:50:00,
2013-02-23 12:01:00,51.3,48.2,29.95,NNE,18,2.0,5.0,89,0.00,OVC,,0.42,WeatherDisplay:10.37,2013-02-23 17:01:00,
2013-02-23 12:10:00,52.0,48.5,29.95,NNE,33,1.0,4.0,88,0.00,OVC,,0.42,WeatherDisplay:10.37,2013-02-23 17:10:00,
2013-02-23 12:20:00,52.2,48.1,29.95,NNE,32,0.0,5.0,86,0.00,OVC,,0.42,WeatherDisplay:10.37,2013-02-23 17:20:00,
2013-02-23 12:31:00,52.7,48.3,29.95,East,89,3.0,6.0,85,0.00,OVC,,0.42,WeatherDisplay:10.37,2013-02-23 17:31:00,
2013-02-23 12:40:00,52.8,48.1,29.95,ESE,103,2.0,5.0,84,0.00,OVC,,0.42,WeatherDisplay:10.37,2013-02-23 17:40:00,
2013-02-23 12:50:00,53.1,48.4,29.94,ESE,111,0.0,5.0,84,0.00,OVC,,0.42,WeatherDisplay:10.37,2013-02-23 17:50:00,
2013-02-23 13:01:00,53.8,49.1,29.93,SSE,161,0.0,4.0,84,0.00,OVC,,0.42,WeatherDisplay:10.37,2013-02-23 18:01:00,
2013-02-23 13:10:00,54.2,49.1,29.92,ENE,65,1.0,4.0,83,0.00,OVC,,0.42,WeatherDisplay:10.37,2013-02-23 18:10:00,
2013-02-23 13:21:00,54.3,48.9,29.92,NE,56,0.0,4.0,82,0.00,OVC,,0.42,WeatherDisplay:10.37,2013-02-23 18:21:00,
2013-02-23 13:31:00,54.8,49.1,29.92,SSE,158,0.0,4.0,81,0.00,OVC,,0.42,WeatherDisplay:10.37,2013-02-23 18:31:00,
2013-02-23 13:40:00,54.8,49.4,29.92,WSW,247,2.0,4.0,82,0.00,OVC,,0.42,WeatherDisplay:10.37,2013-02-23 18:40:00,
2013-02-23 13:50:00,55.3,49.9,29.91,WSW,247,0.0,3.0,82,0.00,OVC,,0.42,WeatherDisplay:10.37,2013-02-23 18:50:00,
2013-02-23 14:01:00,55.8,49.7,29.92,North,349,3.0,4.0,80,0.00,OVC,,0.42,WeatherDisplay:10.37,2013-02-23 19:01:00,
2013-02-23 14:11:00,55.4,49.7,29.92,North,11,1.0,5.0,81,0.00,OVC,,0.42,WeatherDisplay:10.37,2013-02-23 19:11:00,
2013-02-23 14:21:00,55.4,49.3,29.92,West,266,0.0,4.0,80,0.00,OVC,,0.42,WeatherDisplay:10.37,2013-02-23 19:21:00,
2013-02-23 14:31:00,55.8,49.8,29.91,North,358,2.0,5.0,80,0.00,OVC,,0.42,WeatherDisplay:10.37,2013-02-23 19:31:00,
2013-02-23 14:40:00,55.7,49.6,29.92,North,349,1.0,6.0,80,0.00,OVC,,0.42,WeatherDisplay:10.37,2013-02-23 19:40:00,
2013-02-23 14:51:00,55.5,49.4,29.92,NW,311,1.0,6.0,80,0.00,OVC,,0.42,WeatherDisplay:10.37,2013-02-23 19:51:00,
2013-02-23 15:01:00,55.8,49.4,29.92,West,280,1.0,4.0,79,0.00,OVC,,0.42,WeatherDisplay:10.37,2013-02-23 20:01:00,
2013-02-23 15:10:00,55.7,49.3,29.92,West,260,3.0,5.0,79,0.00,OVC,,0.42,WeatherDisplay:10.37,2013-02-23 20:10:00,
2013-02-23 15:20:00,55.4,49.0,29.90,WSW,257,0.0,5.0,79,0.00,BKN,,0.42,WeatherDisplay:10.37,2013-02-23 20:20:00,
2013-02-23 15:31:00,55.7,49.3,29.91,WNW,300,0.0,1.0,79,0.00,BKN,,0.42,WeatherDisplay:10.37,2013-02-23 20:31:00,
2013-02-23 15:41:00,56.0,49.2,29.91,WNW,302,0.0,2.0,78,0.00,BKN,,0.42,WeatherDisplay:10.37,2013-02-23 20:41:00,
2013-02-23 15:50:00,56.2,49.4,29.90,WNW,302,1.0,2.0,78,0.00,CLR,,0.42,WeatherDisplay:10.37,2013-02-23 20:50:00,
2013-02-23 16:01:00,56.0,49.6,29.90,WNW,302,0.0,2.0,79,0.00,CLR,,0.42,WeatherDisplay:10.37,2013-02-23 21:01:00,
2013-02-23 16:11:00,55.9,49.5,29.90,WNW,302,0.0,1.0,79,0.00,CLR,,0.42,WeatherDisplay:10.37,2013-02-23 21:11:00,
2013-02-23 16:21:00,56.0,49.5,29.90,WNW,302,0.0,1.0,79,0.00,CLR,,0.42,WeatherDisplay:10.37,2013-02-23 21:21:00,
2013-02-23 16:31:00,55.7,49.6,29.89,WNW,302,0.0,0.0,80,0.00,CLR,,0.42,WeatherDisplay:10.37,2013-02-23 21:31:00,
2013-02-23 16:40:00,55.5,49.8,29.89,WNW,302,0.0,0.0,81,0.00,CLR,,0.42,WeatherDisplay:10.37,2013-02-23 21:40:00,
2013-02-23 16:51:00,55.3,49.9,29.89,NNW,335,1.0,2.0,82,0.00,CLR,,0.42,WeatherDisplay:10.37,2013-02-23 21:51:00,
2013-02-23 17:01:00,54.9,49.8,29.89,East,81,1.0,4.0,83,0.00,CLR,,0.42,WeatherDisplay:10.37,2013-02-23 22:01:00,
2013-02-23 17:11:00,54.5,49.8,29.88,ESE,119,3.0,5.0,84,0.00,CLR,,0.42,WeatherDisplay:10.37,2013-02-23 22:11:00,
2013-02-23 17:21:00,54.2,49.5,29.88,SE,130,1.0,4.0,84,0.00,CLR,,0.42,WeatherDisplay:10.37,2013-02-23 22:21:00,
2013-02-23 17:31:00,53.8,49.8,29.87,SE,128,0.0,2.0,86,0.00,CLR,,0.42,WeatherDisplay:10.37,2013-02-23 22:31:00,
2013-02-23 17:40:00,53.5,49.4,29.86,SE,128,0.0,2.0,86,0.00,CLR,,0.42,WeatherDisplay:10.37,2013-02-23 22:40:00,
2013-02-23 17:50:00,53.2,49.4,29.86,SE,128,0.0,1.0,87,0.00,CLR,,0.42,WeatherDisplay:10.37,2013-02-23 22:50:00,
2013-02-23 18:01:00,53.0,49.2,29.86,SE,128,0.0,2.0,87,0.00,CLR,,0.42,WeatherDisplay:10.37,2013-02-23 23:01:00,
2013-02-23 18:10:00,52.7,49.2,29.86,SE,128,0.0,0.0,88,0.00,CLR,,0.42,WeatherDisplay:10.37,2013-02-23 23:10:00,
2013-02-23 18:21:00,52.3,48.9,29.86,SE,128,0.0,0.0,88,0.00,CLR,,0.42,WeatherDisplay:10.37,2013-02-23 23:21:00,
2013-02-23 18:31:00,51.9,48.8,29.86,SE,128,0.0,0.0,89,0.00,CLR,,0.42,WeatherDisplay:10.37,2013-02-23 23:31:00,
2013-02-23 18:40:00,51.5,48.7,29.87,SE,128,0.0,0.0,90,0.00,CLR,,0.42,WeatherDisplay:10.37,2013-02-23 23:40:00,
2013-02-23 18:50:00,51.0,48.5,29.87,SE,128,0.0,0.0,91,0.00,CLR,,0.42,WeatherDisplay:10.37,2013-02-23 23:50:00,
2013-02-23 19:01:00,50.7,48.2,29.87,SE,128,0.0,0.0,91,0.00,CLR,,0.42,WeatherDisplay:10.37,2013-02-24 00:01:00,
2013-02-23 19:11:00,50.2,48.0,29.88,SE,128,0.0,0.0,92,0.00,CLR,,0.42,WeatherDisplay:10.37,2013-02-24 00:11:00,
2013-02-23 19:21:00,49.8,47.6,29.89,SE,128,0.0,0.0,92,0.00,CLR,,0.42,WeatherDisplay:10.37,2013-02-24 00:21:00,
2013-02-23 19:31:00,49.5,47.6,29.88,SE,128,0.0,0.0,93,0.00,CLR,,0.42,WeatherDisplay:10.37,2013-02-24 00:31:00,
2013-02-23 19:40:00,49.2,47.3,29.89,SE,128,0.0,0.0,93,0.00,CLR,,0.42,WeatherDisplay:10.37,2013-02-24 00:40:00,
2013-02-23 19:50:00,48.8,46.9,29.89,SE,128,0.0,0.0,93,0.00,CLR,,0.42,WeatherDisplay:10.37,2013-02-24 00:50:00,
2013-02-23 20:01:00,48.7,47.1,29.89,SE,128,0.0,0.0,94,0.00,CLR,,0.42,WeatherDisplay:10.37,2013-02-24 01:01:00,
2013-02-23 20:10:00,49.5,48.5,29.89,WSW,247,5.0,7.0,96,0.00,CLR,,0.42,WeatherDisplay:10.37,2013-02-24 01:10:00,
2013-02-23 20:20:00,50.6,49.2,29.90,West,260,5.0,8.0,95,0.00,CLR,,0.42,WeatherDisplay:10.37,2013-02-24 01:20:00,
2013-02-23 20:31:00,50.8,49.1,29.90,WSW,255,3.0,8.0,94,0.00,CLR,,0.42,WeatherDisplay:10.37,2013-02-24 01:31:00,
2013-02-23 20:41:00,50.6,48.9,29.91,West,267,6.0,7.0,94,0.00,CLR,,0.42,WeatherDisplay:10.37,2013-02-24 01:41:00,
2013-02-23 20:51:00,50.7,49.0,29.92,West,267,5.0,8.0,94,0.00,,,0.42,WeatherDisplay:10.37,2013-02-24 01:51:00,
2013-02-23 21:01:00,50.8,48.8,29.92,West,261,3.0,6.0,93,0.00,,,0.42,WeatherDisplay:10.37,2013-02-24 02:01:00,
2013-02-23 21:10:00,50.8,48.8,29.93,West,271,2.0,6.0,93,0.00,BKN,,0.42,WeatherDisplay:10.37,2013-02-24 02:10:00,
2013-02-23 21:20:00,50.5,48.3,29.93,WSW,256,2.0,5.0,92,0.00,BKN,,0.42,WeatherDisplay:10.37,2013-02-24 02:20:00,
2013-02-23 21:31:00,50.3,48.1,29.93,SSW,210,3.0,8.0,92,0.00,BKN,,0.42,WeatherDisplay:10.37,2013-02-24 02:31:00,
2013-02-23 21:41:00,49.6,47.1,29.94,South,189,0.0,5.0,91,0.00,OVC,,0.42,WeatherDisplay:10.37,2013-02-24 02:41:00,
2013-02-23 21:50:00,48.8,46.5,29.95,South,189,2.0,3.0,92,0.00,OVC,,0.42,WeatherDisplay:10.37,2013-02-24 02:50:00,
2013-02-23 22:01:00,47.8,45.9,29.95,South,189,1.0,3.0,93,0.00,OVC,,0.42,WeatherDisplay:10.37,2013-02-24 03:01:00,
2013-02-23 22:10:00,47.2,45.3,29.95,WSW,247,3.0,5.0,93,0.00,OVC,,0.42,WeatherDisplay:10.37,2013-02-24 03:10:00,
2013-02-23 22:20:00,46.8,45.1,29.95,WSW,257,1.0,3.0,94,0.00,OVC,,0.42,WeatherDisplay:10.37,2013-02-24 03:20:00,
2013-02-23 22:31:00,46.3,44.7,29.94,WSW,257,0.0,4.0,94,0.00,OVC,,0.42,WeatherDisplay:10.37,2013-02-24 03:31:00,
2013-02-23 22:40:00,46.0,44.6,29.94,WSW,257,0.0,1.0,95,0.00,OVC,,0.42,WeatherDisplay:10.37,2013-02-24 03:40:00,
2013-02-23 22:50:00,46.1,44.7,29.94,WSW,257,0.0,3.0,95,0.00,OVC,,0.42,WeatherDisplay:10.37,2013-02-24 03:50:00,
2013-02-23 23:01:00,47.4,45.5,29.95,NNE,16,3.0,6.0,93,0.00,OVC,,0.42,WeatherDisplay:10.37,2013-02-24 04:01:00,
2013-02-23 23:10:00,48.4,45.0,29.94,WSW,239,0.0,6.0,88,0.00,OVC,,0.42,WeatherDisplay:10.37,2013-02-24 04:10:00,
2013-02-23 23:20:00,47.6,44.5,29.94,SW,234,2.0,4.0,89,0.00,OVC,,0.42,WeatherDisplay:10.37,2013-02-24 04:20:00,
2013-02-23 23:31:00,46.7,43.9,29.94,WSW,246,2.0,4.0,90,0.00,OVC,,0.42,WeatherDisplay:10.37,2013-02-24 04:31:00,
2013-02-23 23:41:00,47.5,44.4,29.94,NW,323,1.0,7.0,89,0.00,OVC,,0.42,WeatherDisplay:10.37,2013-02-24 04:41:00,
2013-02-23 23:51:00,47.7,44.0,29.94,West,275,3.0,6.0,87,0.00,OVC,,0.42,WeatherDisplay:10.37,2013-02-24 04:51:00,